createdAt,value
2019-03-26T00:00:40.973Z,81.59
2019-03-26T00:03:13.762Z,81.62
2019-03-26T00:05:46.609Z,82.10
2019-03-26T00:08:19.262Z,81.26
2019-03-26T00:10:51.893Z,80.11
2019-03-26T00:13:24.572Z,81.50
2019-03-26T00:15:58.297Z,79.89
2019-03-26T00:18:30.978Z,79.62
2019-03-26T00:21:03.768Z,81.11
2019-03-26T00:23:36.516Z,80.88
2019-03-26T00:26:09.110Z,81.69
2019-03-26T00:28:41.726Z,81.51
2019-03-26T00:31:14.332Z,81.53
2019-03-26T00:33:46.991Z,80.71
2019-03-26T00:36:19.736Z,82.04
2019-03-26T00:38:52.273Z,81.84
2019-03-26T00:41:24.851Z,81.12
2019-03-26T00:43:57.365Z,81.36
2019-03-26T00:46:29.903Z,81.20
2019-03-26T00:49:02.425Z,81.34
2019-03-26T00:51:34.941Z,81.55
2019-03-26T00:54:07.543Z,80.79
2019-03-26T00:56:40.133Z,80.89
2019-03-26T00:59:12.705Z,80.78
2019-03-26T01:01:45.324Z,81.41
2019-03-26T01:04:17.944Z,82.26
2019-03-26T01:06:50.549Z,80.77
2019-03-26T01:09:23.900Z,80.81
2019-03-26T01:11:56.437Z,82.92
2019-03-26T01:14:29.058Z,80.56
2019-03-26T01:17:01.579Z,81.00
2019-03-26T01:19:34.177Z,81.41
2019-03-26T01:22:07.776Z,83.14
2019-03-26T01:24:40.570Z,81.91
2019-03-26T01:27:13.155Z,82.12
2019-03-26T01:29:45.682Z,81.97
2019-03-26T01:32:18.195Z,81.86
2019-03-26T01:34:50.705Z,81.85
2019-03-26T01:37:23.224Z,81.87
2019-03-26T01:39:55.733Z,82.28
2019-03-26T01:42:28.325Z,81.93
2019-03-26T01:45:00.828Z,82.02
2019-03-26T01:47:33.366Z,82.38
2019-03-26T01:50:06.785Z,82.88
2019-03-26T01:52:39.310Z,83.29
2019-03-26T01:55:12.290Z,83.37
2019-03-26T01:57:45.172Z,82.79
2019-03-26T02:00:17.981Z,83.05
2019-03-26T02:02:51.025Z,82.96
2019-03-26T02:05:23.555Z,83.12
2019-03-26T02:07:56.083Z,82.38
2019-03-26T02:10:28.601Z,82.18
2019-03-26T02:13:01.127Z,81.88
2019-03-26T02:15:34.835Z,81.67
2019-03-26T02:18:08.789Z,82.69
2019-03-26T02:20:41.384Z,82.69
2019-03-26T02:23:14.575Z,83.23
2019-03-26T02:25:47.101Z,83.09
2019-03-26T02:28:19.711Z,83.28
2019-03-26T02:30:52.297Z,83.69
2019-03-26T02:33:24.901Z,83.71
2019-03-26T02:35:57.425Z,83.34
2019-03-26T02:38:30.137Z,83.21
2019-03-26T02:41:02.658Z,83.62
2019-03-26T02:43:35.166Z,84.56
2019-03-26T02:46:07.846Z,85.60
2019-03-26T02:48:40.696Z,86.15
2019-03-26T02:51:13.206Z,86.16
2019-03-26T02:53:45.738Z,86.06
2019-03-26T02:56:18.252Z,85.21
2019-03-26T02:58:50.777Z,85.07
2019-03-26T03:01:23.307Z,84.86
2019-03-26T03:03:55.837Z,84.34
2019-03-26T03:06:28.366Z,84.49
2019-03-26T03:09:00.902Z,84.91
2019-03-26T03:11:33.803Z,84.52
2019-03-26T03:14:06.479Z,84.96
2019-03-26T03:16:39.002Z,85.30
2019-03-26T03:19:15.865Z,86.14
2019-03-26T03:21:46.888Z,85.22
2019-03-26T03:24:19.402Z,85.41
2019-03-26T03:26:52.001Z,85.56
2019-03-26T03:29:24.532Z,86.19
2019-03-26T03:31:57.048Z,86.70
2019-03-26T03:34:29.968Z,86.27
2019-03-26T03:37:02.532Z,85.84
2019-03-26T03:39:35.045Z,85.54
2019-03-26T03:42:08.773Z,85.22
2019-03-26T03:44:41.537Z,84.99
2019-03-26T03:47:16.188Z,85.51
2019-03-26T03:49:49.446Z,85.04
2019-03-26T03:52:23.738Z,85.27
2019-03-26T03:54:56.564Z,84.96
2019-03-26T03:57:32.665Z,84.68
2019-03-26T04:00:06.924Z,84.35
2019-03-26T04:02:39.432Z,84.83
2019-03-26T04:05:12.198Z,83.56
2019-03-26T04:07:44.713Z,81.27
2019-03-26T04:10:17.215Z,81.01
2019-03-26T04:12:49.721Z,80.79
2019-03-26T04:15:22.218Z,81.15
2019-03-26T04:17:54.762Z,81.38
2019-03-26T04:20:27.575Z,81.97
2019-03-26T04:23:00.294Z,81.50
2019-03-26T04:25:33.121Z,82.08
2019-03-26T04:28:05.790Z,82.06
2019-03-26T04:30:38.705Z,80.76
2019-03-26T04:33:12.445Z,81.79
2019-03-26T04:35:44.960Z,82.38
2019-03-26T04:38:17.543Z,80.98
2019-03-26T04:40:50.283Z,82.81
2019-03-26T04:43:22.844Z,83.20
2019-03-26T04:45:55.488Z,83.29
2019-03-26T04:48:28.323Z,83.62
2019-03-26T04:51:00.826Z,84.49
2019-03-26T04:53:34.329Z,84.12
2019-03-26T04:56:07.020Z,84.33
2019-03-26T04:58:39.722Z,83.77
2019-03-26T05:01:12.729Z,83.84
2019-03-26T05:03:45.600Z,84.14
2019-03-26T05:06:18.251Z,84.05
2019-03-26T05:08:50.797Z,84.20
2019-03-26T05:11:23.343Z,84.25
2019-03-26T05:13:55.860Z,84.16
2019-03-26T05:16:28.464Z,84.29
2019-03-26T05:19:00.980Z,84.57
2019-03-26T05:21:33.653Z,84.69
2019-03-26T05:24:06.618Z,85.04
2019-03-26T05:26:39.240Z,85.02
2019-03-26T05:29:12.102Z,84.50
2019-03-26T05:31:44.926Z,84.46
2019-03-26T05:34:17.686Z,84.38
2019-03-26T05:36:51.702Z,84.36
2019-03-26T05:39:24.495Z,84.68
2019-03-26T05:41:56.993Z,84.83
2019-03-26T05:44:29.511Z,85.13
2019-03-26T05:47:02.095Z,85.63
2019-03-26T05:49:34.615Z,85.20
2019-03-26T05:52:07.113Z,85.18
2019-03-26T05:54:39.647Z,85.13
2019-03-26T05:57:12.317Z,85.02
2019-03-26T05:59:44.901Z,84.96
2019-03-26T06:02:18.114Z,84.72
2019-03-26T06:04:50.983Z,84.02
2019-03-26T06:07:23.563Z,84.27
2019-03-26T06:09:57.110Z,84.98
2019-03-26T06:12:30.583Z,85.39
2019-03-26T06:15:11.884Z,85.16
2019-03-26T06:17:42.048Z,85.12
2019-03-26T06:20:14.735Z,85.54
2019-03-26T06:22:47.254Z,85.79
2019-03-26T06:25:19.847Z,85.59
2019-03-26T06:27:52.355Z,85.88
2019-03-26T06:30:24.865Z,85.46
2019-03-26T06:32:57.405Z,85.86
2019-03-26T06:35:29.873Z,85.31
2019-03-26T06:38:02.360Z,83.72
2019-03-26T06:40:35.607Z,83.27
2019-03-26T06:43:08.102Z,85.08
2019-03-26T06:45:40.866Z,85.17
2019-03-26T06:48:13.457Z,85.94
2019-03-26T06:50:47.280Z,86.15
2019-03-26T06:53:19.771Z,85.99
2019-03-26T06:55:52.287Z,85.63
2019-03-26T06:58:24.867Z,84.83
2019-03-26T07:00:57.465Z,85.26
2019-03-26T07:03:30.052Z,84.83
2019-03-26T07:06:02.632Z,83.69
2019-03-26T07:08:35.118Z,85.24
2019-03-26T07:11:07.707Z,85.49
2019-03-26T07:13:40.221Z,83.37
2019-03-26T07:16:12.816Z,84.82
2019-03-26T07:18:45.374Z,85.31
2019-03-26T07:21:17.880Z,87.08
2019-03-26T07:23:50.449Z,86.93
2019-03-26T07:26:23.138Z,86.08
2019-03-26T07:28:56.884Z,85.50
2019-03-26T07:31:29.644Z,85.57
2019-03-26T07:34:02.154Z,86.09
2019-03-26T07:36:34.747Z,84.41
2019-03-26T07:39:09.300Z,85.21
2019-03-26T07:41:41.875Z,86.27
2019-03-26T07:44:14.411Z,84.72
2019-03-26T07:46:46.986Z,84.73
2019-03-26T07:49:19.527Z,85.06
2019-03-26T07:51:52.283Z,85.02
2019-03-26T07:54:24.878Z,84.89
2019-03-26T07:56:58.451Z,86.43
2019-03-26T07:59:30.948Z,85.95
2019-03-26T08:02:03.489Z,85.16
2019-03-26T08:04:38.614Z,84.49
2019-03-26T08:07:11.343Z,87.06
2019-03-26T08:09:43.860Z,86.13
2019-03-26T08:12:16.435Z,84.45
2019-03-26T08:14:49.036Z,83.69
2019-03-26T08:17:21.814Z,82.27
2019-03-26T08:19:54.572Z,82.44
2019-03-26T08:22:27.078Z,83.52
2019-03-26T08:24:59.650Z,83.50
2019-03-26T08:27:32.150Z,82.55
2019-03-26T08:30:05.674Z,82.16
2019-03-26T08:32:38.267Z,83.22
2019-03-26T08:35:11.047Z,80.10
2019-03-26T08:37:43.563Z,80.16
2019-03-26T08:40:16.408Z,80.49
2019-03-26T08:42:49.057Z,81.18
2019-03-26T08:45:21.899Z,79.81
2019-03-26T08:47:54.418Z,78.99
2019-03-26T08:50:26.917Z,79.45
2019-03-26T08:52:59.438Z,79.20
2019-03-26T08:55:31.943Z,78.78
2019-03-26T08:58:04.557Z,79.43
2019-03-26T09:00:37.385Z,78.12
2019-03-26T09:03:10.675Z,77.68
2019-03-26T09:05:43.254Z,77.73
2019-03-26T09:08:25.184Z,78.01
2019-03-26T09:10:52.067Z,77.48
2019-03-26T09:13:24.480Z,76.49
2019-03-26T09:15:56.976Z,74.76
2019-03-26T09:18:29.624Z,75.39
2019-03-26T09:21:02.207Z,74.49
2019-03-26T09:23:34.703Z,73.73
2019-03-26T09:26:07.299Z,74.27
2019-03-26T09:28:39.802Z,72.80
2019-03-26T09:31:12.304Z,71.51
2019-03-26T09:33:44.913Z,72.12
2019-03-26T09:36:17.477Z,71.56
2019-03-26T09:38:50.267Z,71.66
2019-03-26T09:41:22.761Z,71.31
2019-03-26T09:43:55.257Z,70.40
2019-03-26T09:46:27.814Z,68.90
2019-03-26T09:49:00.394Z,68.96
2019-03-26T09:51:32.900Z,69.24
2019-03-26T09:54:05.480Z,66.57
2019-03-26T09:56:37.985Z,66.01
2019-03-26T09:59:10.559Z,66.73
2019-03-26T10:01:43.070Z,67.96
2019-03-26T10:04:15.554Z,67.11
2019-03-26T10:06:48.068Z,69.10
2019-03-26T10:09:20.557Z,68.83
2019-03-26T10:11:53.123Z,68.07
2019-03-26T10:14:25.628Z,67.81
2019-03-26T10:16:58.101Z,68.20
2019-03-26T10:19:30.887Z,69.26
2019-03-26T10:22:03.537Z,69.00
2019-03-26T10:24:36.116Z,66.81
2019-03-26T10:27:10.201Z,65.97
2019-03-26T10:29:42.700Z,63.91
2019-03-26T10:32:15.351Z,62.57
2019-03-26T10:34:47.867Z,62.57
2019-03-26T10:37:20.519Z,61.98
2019-03-26T10:39:53.027Z,59.80
2019-03-26T10:42:25.658Z,59.02
2019-03-26T10:44:58.229Z,58.00
2019-03-26T10:47:30.706Z,58.76
2019-03-26T10:50:03.199Z,60.10
2019-03-26T10:52:35.948Z,59.27
2019-03-26T10:55:08.671Z,58.30
2019-03-26T10:57:41.153Z,58.22
2019-03-26T11:00:14.167Z,59.75
2019-03-26T11:02:46.815Z,58.08
2019-03-26T11:05:19.561Z,58.40
2019-03-26T11:07:52.117Z,59.07
2019-03-26T11:10:24.686Z,57.12
2019-03-26T11:12:57.327Z,56.12
2019-03-26T11:15:29.894Z,55.58
2019-03-26T11:18:02.382Z,55.89
2019-03-26T11:20:35.145Z,55.84
2019-03-26T11:23:08.040Z,55.57
2019-03-26T11:25:40.607Z,54.17
2019-03-26T11:28:13.418Z,55.24
2019-03-26T11:30:45.917Z,55.73
2019-03-26T11:33:18.405Z,56.95
2019-03-26T11:35:50.971Z,55.14
2019-03-26T11:38:23.525Z,54.80
2019-03-26T11:40:56.021Z,54.40
2019-03-26T11:43:28.514Z,53.23
2019-03-26T11:46:01.088Z,53.71
2019-03-26T11:48:33.590Z,57.34
2019-03-26T11:51:06.228Z,52.53
2019-03-26T11:53:38.729Z,53.06
2019-03-26T11:56:11.291Z,53.96
2019-03-26T11:58:43.780Z,54.86
2019-03-26T12:01:16.367Z,54.48
2019-03-26T12:03:48.854Z,54.72
2019-03-26T12:06:21.433Z,55.78
2019-03-26T12:08:54.054Z,54.38
2019-03-26T12:11:26.556Z,54.16
2019-03-26T12:13:59.046Z,53.93
2019-03-26T12:16:31.522Z,53.95
2019-03-26T12:19:04.015Z,52.65
2019-03-26T12:21:36.507Z,52.64
2019-03-26T12:24:09.057Z,53.37
2019-03-26T12:26:41.643Z,53.46
2019-03-26T12:29:14.633Z,53.95
2019-03-26T12:31:47.145Z,52.15
2019-03-26T12:34:19.619Z,53.73
2019-03-26T12:36:52.191Z,51.50
2019-03-26T12:39:25.656Z,52.87
2019-03-26T12:41:58.232Z,52.18
2019-03-26T12:44:30.726Z,52.23
2019-03-26T12:47:03.219Z,53.02
2019-03-26T12:49:36.682Z,53.01
2019-03-26T12:52:10.495Z,52.96
2019-03-26T12:54:43.057Z,53.90
2019-03-26T12:57:15.551Z,53.49
2019-03-26T12:59:48.142Z,53.43
2019-03-26T13:02:20.631Z,53.60
2019-03-26T13:04:53.150Z,52.70
2019-03-26T13:07:25.710Z,52.78
2019-03-26T13:09:58.280Z,52.44
2019-03-26T13:12:30.780Z,53.00
2019-03-26T13:15:03.296Z,55.02
2019-03-26T13:17:36.831Z,53.75
2019-03-26T13:20:10.231Z,53.44
2019-03-26T13:22:42.794Z,52.49
2019-03-26T13:25:15.363Z,52.94
2019-03-26T13:27:47.841Z,52.74
2019-03-26T13:30:21.770Z,52.79
2019-03-26T13:32:54.263Z,52.15
2019-03-26T13:35:26.752Z,53.38
2019-03-26T13:37:59.478Z,51.67
2019-03-26T13:40:31.970Z,51.61
2019-03-26T13:43:04.459Z,50.27
2019-03-26T13:45:37.026Z,49.36
2019-03-26T13:48:10.532Z,47.79
2019-03-26T13:50:43.163Z,49.03
2019-03-26T13:53:15.728Z,48.89
2019-03-26T13:55:48.565Z,49.25
2019-03-26T13:58:21.122Z,47.31
2019-03-26T14:00:53.714Z,48.37
2019-03-26T14:03:26.207Z,50.60
2019-03-26T14:05:58.708Z,50.40
2019-03-26T14:08:31.805Z,51.03
2019-03-26T14:11:04.795Z,52.34
2019-03-26T14:13:37.280Z,51.31
2019-03-26T14:16:10.469Z,50.81
2019-03-26T14:18:42.953Z,51.16
2019-03-26T14:21:15.468Z,50.00
2019-03-26T14:23:48.049Z,49.00
2019-03-26T14:26:20.562Z,48.88
2019-03-26T14:28:53.618Z,48.63
2019-03-26T14:31:26.111Z,50.44
2019-03-26T14:33:58.590Z,48.78
2019-03-26T14:36:31.253Z,48.13
2019-03-26T14:39:04.754Z,49.73
2019-03-26T14:41:38.214Z,49.02
2019-03-26T14:44:11.841Z,49.74
2019-03-26T14:46:44.363Z,50.32
2019-03-26T14:49:16.850Z,50.99
2019-03-26T14:51:49.339Z,50.75
2019-03-26T14:54:21.924Z,50.26
2019-03-26T14:56:54.415Z,50.34
2019-03-26T14:59:26.899Z,48.85
2019-03-26T15:01:59.468Z,49.04
2019-03-26T15:04:32.023Z,48.76
2019-03-26T15:07:04.602Z,49.91
2019-03-26T15:09:37.079Z,50.38
2019-03-26T15:12:10.326Z,50.47
2019-03-26T15:14:43.065Z,51.26
2019-03-26T15:17:15.578Z,51.68
2019-03-26T15:19:48.130Z,52.00
2019-03-26T15:22:20.863Z,51.61
2019-03-26T15:24:53.351Z,52.62
2019-03-26T15:27:25.854Z,53.14
2019-03-26T15:29:58.348Z,52.73
2019-03-26T15:32:31.107Z,51.62
2019-03-26T15:35:03.748Z,52.52
2019-03-26T15:37:36.256Z,52.71
2019-03-26T15:40:09.479Z,52.52
2019-03-26T15:42:42.244Z,53.72
2019-03-26T15:45:15.073Z,53.92
2019-03-26T15:47:47.574Z,54.69
2019-03-26T15:50:58.051Z,55.36
2019-03-26T15:53:30.559Z,55.09
2019-03-26T15:56:03.119Z,55.17
2019-03-26T15:58:35.859Z,55.59
2019-03-26T16:01:08.512Z,56.25
2019-03-26T16:03:41.086Z,55.69
2019-03-26T16:06:13.830Z,56.14
2019-03-26T16:08:47.386Z,56.59
2019-03-26T16:11:19.882Z,56.88
2019-03-26T16:13:52.386Z,57.69
2019-03-26T16:16:24.863Z,58.23
2019-03-26T16:18:57.372Z,57.30
2019-03-26T16:21:29.982Z,56.89
2019-03-26T16:24:02.532Z,56.49
2019-03-26T16:26:35.022Z,57.23
2019-03-26T16:29:07.829Z,56.53
2019-03-26T16:31:40.319Z,58.05
2019-03-26T16:34:12.826Z,58.21
2019-03-26T16:36:58.473Z,57.13
2019-03-26T16:39:19.841Z,57.92
2019-03-26T16:41:52.408Z,56.26
2019-03-26T16:44:25.160Z,55.79
2019-03-26T16:46:57.669Z,55.83
2019-03-26T16:49:30.240Z,56.77
2019-03-26T16:52:02.742Z,57.75
2019-03-26T16:54:35.252Z,58.34
2019-03-26T16:57:07.751Z,58.31
2019-03-26T16:59:40.306Z,58.17
2019-03-26T17:02:12.827Z,58.26
2019-03-26T17:04:47.011Z,58.17
2019-03-26T17:07:19.687Z,58.22
2019-03-26T17:09:52.620Z,58.42
2019-03-26T17:12:25.703Z,57.89
2019-03-26T17:14:58.375Z,59.14
2019-03-26T17:17:30.868Z,58.31
2019-03-26T17:20:03.526Z,58.55
2019-03-26T17:22:36.177Z,59.11
2019-03-26T17:25:09.389Z,57.37
2019-03-26T17:27:41.908Z,57.24
2019-03-26T17:30:14.839Z,56.20
2019-03-26T17:32:47.675Z,55.82
2019-03-26T17:35:20.364Z,55.63
2019-03-26T17:37:59.615Z,55.08
2019-03-26T17:40:27.202Z,55.02
2019-03-26T17:43:00.869Z,55.22
2019-03-26T17:45:33.413Z,56.22
2019-03-26T17:48:06.325Z,55.71
2019-03-26T17:50:38.828Z,55.89
2019-03-26T17:53:11.323Z,55.58
2019-03-26T17:55:44.579Z,55.60
2019-03-26T17:58:17.083Z,55.41
2019-03-26T18:00:50.028Z,55.34
2019-03-26T18:03:26.667Z,55.38
2019-03-26T18:05:56.727Z,56.08
2019-03-26T18:08:29.219Z,56.29
2019-03-26T18:11:02.048Z,56.27
2019-03-26T18:13:35.038Z,56.36
2019-03-26T18:16:07.726Z,57.25
2019-03-26T18:18:40.527Z,56.74
2019-03-26T18:21:13.012Z,57.10
2019-03-26T18:23:45.511Z,57.48
2019-03-26T18:26:18.415Z,58.06
2019-03-26T18:28:50.898Z,57.90
2019-03-26T18:31:24.014Z,57.76
2019-03-26T18:33:56.657Z,57.93
2019-03-26T18:36:29.235Z,58.67
2019-03-26T18:39:02.701Z,58.60
2019-03-26T18:41:36.572Z,58.53
2019-03-26T18:44:09.300Z,58.40
2019-03-26T18:46:42.446Z,58.71
2019-03-26T18:49:15.198Z,58.48
2019-03-26T18:51:47.861Z,58.92
2019-03-26T18:54:20.360Z,58.55
2019-03-26T18:56:52.995Z,58.60
2019-03-26T18:59:25.509Z,58.85
2019-03-26T19:01:58.000Z,58.76
2019-03-26T19:04:30.652Z,58.34
2019-03-26T19:07:03.149Z,58.24
2019-03-26T19:09:35.778Z,57.96
2019-03-26T19:12:08.361Z,58.01
2019-03-26T19:14:42.302Z,58.00
2019-03-26T19:17:14.969Z,58.27
2019-03-26T19:19:47.960Z,58.33
2019-03-26T19:22:20.519Z,59.64
2019-03-26T19:24:53.160Z,59.15
2019-03-26T19:27:25.811Z,59.13
2019-03-26T19:29:58.609Z,59.19
2019-03-26T19:32:31.304Z,58.79
2019-03-26T19:35:04.046Z,58.19
2019-03-26T19:37:36.791Z,58.94
2019-03-26T19:40:11.065Z,58.84
2019-03-26T19:42:43.762Z,58.06
2019-03-26T19:45:16.523Z,57.93
2019-03-26T19:47:50.210Z,58.15
2019-03-26T19:50:23.042Z,58.25
2019-03-26T19:52:55.539Z,58.30
2019-03-26T19:55:28.172Z,58.94
2019-03-26T19:58:01.073Z,59.08
2019-03-26T20:00:33.760Z,59.74
2019-03-26T20:03:06.505Z,58.99
2019-03-26T20:05:39.081Z,59.18
2019-03-26T20:08:11.915Z,59.54
2019-03-26T20:10:45.161Z,59.17
2019-03-26T20:13:24.442Z,59.11
2019-03-26T20:15:52.129Z,59.75
2019-03-26T20:18:24.725Z,59.68
2019-03-26T20:20:57.319Z,60.47
2019-03-26T20:23:29.898Z,60.83
2019-03-26T20:26:02.336Z,60.35
2019-03-26T20:28:34.970Z,60.17
2019-03-26T20:31:07.560Z,60.21
2019-03-26T20:33:42.390Z,60.64
2019-03-26T20:36:14.295Z,60.19
2019-03-26T20:38:46.804Z,60.30
2019-03-26T20:41:19.286Z,60.91
2019-03-26T20:43:51.794Z,60.39
2019-03-26T20:46:24.292Z,60.39
2019-03-26T20:48:56.814Z,60.45
2019-03-26T20:51:29.318Z,60.79
2019-03-26T20:54:01.906Z,60.64
2019-03-26T20:56:34.674Z,60.72
2019-03-26T20:59:07.311Z,60.77
2019-03-26T21:01:39.902Z,60.86
2019-03-26T21:04:12.393Z,61.04
2019-03-26T21:06:45.199Z,61.98
2019-03-26T21:09:18.686Z,61.37
2019-03-26T21:11:51.476Z,61.32
2019-03-26T21:14:23.989Z,61.91
2019-03-26T21:16:56.484Z,61.24
2019-03-26T21:19:29.301Z,61.36
2019-03-26T21:22:01.889Z,61.93
2019-03-26T21:24:34.480Z,61.62
2019-03-26T21:27:07.120Z,62.09
2019-03-26T21:29:39.642Z,62.06
2019-03-26T21:32:12.254Z,62.10
2019-03-26T21:34:44.827Z,62.29
2019-03-26T21:37:17.357Z,63.09
2019-03-26T21:39:49.881Z,62.78
2019-03-26T21:42:22.691Z,62.78
2019-03-26T21:44:55.295Z,62.14
2019-03-26T21:47:27.821Z,63.01
2019-03-26T21:50:00.359Z,63.70
2019-03-26T21:52:32.984Z,62.70
2019-03-26T21:55:06.204Z,62.99
2019-03-26T21:57:38.787Z,62.62
2019-03-26T22:00:11.991Z,63.09
2019-03-26T22:02:44.526Z,63.88
2019-03-26T22:05:17.521Z,63.23
2019-03-26T22:07:50.122Z,63.73
2019-03-26T22:10:22.729Z,63.36
2019-03-26T22:12:56.602Z,63.60
2019-03-26T22:15:29.102Z,64.02
2019-03-26T22:18:01.717Z,63.51
2019-03-26T22:20:34.215Z,64.00
2019-03-26T22:23:06.910Z,63.81
2019-03-26T22:25:39.491Z,64.32
2019-03-26T22:28:12.001Z,63.83
2019-03-26T22:30:45.586Z,64.10
2019-03-26T22:33:18.097Z,63.44
2019-03-26T22:35:50.684Z,63.68
2019-03-26T22:38:23.481Z,64.12
2019-03-26T22:40:56.057Z,63.69
2019-03-26T22:43:28.573Z,63.91
2019-03-26T22:46:01.237Z,63.74
2019-03-26T22:48:33.736Z,65.04
2019-03-26T22:51:06.443Z,63.81
2019-03-26T22:53:39.335Z,63.86
2019-03-26T22:56:11.829Z,64.14
2019-03-26T22:58:44.693Z,64.49
2019-03-26T23:01:17.402Z,64.46
2019-03-26T23:03:51.578Z,65.18
2019-03-26T23:06:24.324Z,65.93
2019-03-26T23:08:56.935Z,65.05
2019-03-26T23:11:29.439Z,65.74
2019-03-26T23:14:01.936Z,65.25
2019-03-26T23:16:34.541Z,65.13
2019-03-26T23:19:07.250Z,65.07
2019-03-26T23:21:39.870Z,66.12
2019-03-26T23:24:12.392Z,65.70
2019-03-26T23:26:45.211Z,65.45
2019-03-26T23:29:17.714Z,65.38
2019-03-26T23:31:50.291Z,65.74
2019-03-26T23:34:22.806Z,65.41
2019-03-26T23:36:55.302Z,65.71
2019-03-26T23:39:27.812Z,67.29
2019-03-26T23:42:00.340Z,66.71
2019-03-26T23:44:32.913Z,67.42
2019-03-26T23:47:05.653Z,66.76
2019-03-26T23:49:38.170Z,67.33
2019-03-26T23:52:10.667Z,66.60
2019-03-26T23:54:43.276Z,67.40
2019-03-26T23:57:15.764Z,66.76
2019-03-26T23:59:48.313Z,66.74
